Cruise inventory

RV Auriga PLUTUR 5

Cruise plan

Cruise Info. 
Ship name (ship code)RV Auriga (68AU)
Cruise identifierPLUTUR 5
Cruise period1995-06-12 — 1995-06-22
StatusCompleted
PurposeResearch
Chief scientistAurora Rodrigues (Portuguese Hydrographic Institute)
ProjectOMEX
Ocean/sea areas 
GeneralNorth Atlantic Ocean
Data held at BODC 
Series/Profiles 
80  CTD/STD cast
Density of the water column
Vertical spatial coordinates
Salinity of the water column
Concentration of suspended particulate material in the water column
Temperature of the water column
Density of the water column
Vertical spatial coordinates
Salinity of the water column
Concentration of suspended particulate material in the water column
Temperature of the water column

BODC idDate/TimeLocationDoc.
9188291995-06-15 12:45 38° 29' 35" N  9° 15' 29" W  View metadata report for BODC series reference number 918829
9188301995-06-16 13:57 38° 55' 59" N  9° 46' 0" W  View metadata report for BODC series reference number 918830
9188421995-06-20 16:24 38° 11' 4" N  8° 55' 54" W  View metadata report for BODC series reference number 918842
9188541995-06-21 15:10 38° 17' 58" N  8° 59' 35" W  View metadata report for BODC series reference number 918854
9179921995-06-22 09:59 38° 26' 48" N  8° 58' 36" W  View metadata report for BODC series reference number 917992
9180061995-06-22 10:25 38° 27' 11" N  8° 59' 17" W  View metadata report for BODC series reference number 918006
9180181995-06-22 10:38 38° 26' 23" N  8° 59' 12" W  View metadata report for BODC series reference number 918018
9180311995-06-22 11:04 38° 25' 47" N  9° 0' 40" W  View metadata report for BODC series reference number 918031
9180431995-06-22 11:25 38° 24' 18" N  9° 2' 41" W  View metadata report for BODC series reference number 918043
9180551995-06-22 11:53 38° 22' 36" N  9° 4' 5" W  View metadata report for BODC series reference number 918055
9180671995-06-22 12:12 38° 20' 48" N  9° 5' 23" W  View metadata report for BODC series reference number 918067
9180791995-06-22 12:37 38° 20' 12" N  9° 9' 0" W  View metadata report for BODC series reference number 918079
9180801995-06-22 12:53 38° 20' 48" N  9° 9' 0" W  View metadata report for BODC series reference number 918080
9180921995-06-22 13:10 38° 22' 0" N  9° 9' 6" W  View metadata report for BODC series reference number 918092
9181111995-06-12 10:52 38° 41' 35" N  9° 15' 47" W  View metadata report for BODC series reference number 918111
9181231995-06-12 12:22 38° 39' 29" N  9° 22' 0" W  View metadata report for BODC series reference number 918123
9181351995-06-12 13:40 38° 38' 42" N  9° 25' 30" W  View metadata report for BODC series reference number 918135
9181471995-06-12 14:30 38° 34' 36" N  9° 24' 24" W  View metadata report for BODC series reference number 918147
9181591995-06-12 15:05 38° 35' 12" N  9° 23' 24" W  View metadata report for BODC series reference number 918159
9181601995-06-12 15:25 38° 36' 29" N  9° 22' 5" W  View metadata report for BODC series reference number 918160
9181721995-06-12 16:07 38° 38' 5" N  9° 21' 24" W  View metadata report for BODC series reference number 918172
9181841995-06-12 16:37 38° 37' 48" N  9° 18' 11" W  View metadata report for BODC series reference number 918184
9181961995-06-12 17:19 38° 37' 36" N  9° 16' 30" W  View metadata report for BODC series reference number 918196
9182031995-06-13 11:15 38° 39' 47" N  9° 24' 53" W  View metadata report for BODC series reference number 918203
9182151995-06-13 11:45 38° 41' 17" N  9° 28' 18" W  View metadata report for BODC series reference number 918215
9182271995-06-13 12:15 38° 41' 30" N  9° 30' 0" W  View metadata report for BODC series reference number 918227
9182391995-06-13 13:15 38° 40' 54" N  9° 37' 11" W  View metadata report for BODC series reference number 918239
9182401995-06-13 13:44 38° 41' 23" N  9° 40' 30" W  View metadata report for BODC series reference number 918240
9182521995-06-13 14:07 38° 40' 47" N  9° 41' 17" W  View metadata report for BODC series reference number 918252
9182641995-06-13 15:42 38° 35' 30" N  9° 33' 36" W  View metadata report for BODC series reference number 918264
9182761995-06-13 17:33 38° 35' 24" N  9° 16' 36" W  View metadata report for BODC series reference number 918276
9182881995-06-14 12:07 38° 47' 48" N  9° 41' 4" W  View metadata report for BODC series reference number 918288
9183071995-06-14 13:03 38° 47' 59" N  9° 45' 54" W  View metadata report for BODC series reference number 918307
9183191995-06-14 14:23 38° 47' 53" N  9° 54' 0" W  View metadata report for BODC series reference number 918319
9183201995-06-15 10:39 38° 34' 18" N  9° 16' 54" W  View metadata report for BODC series reference number 918320
9183321995-06-15 10:56 38° 33' 36" N  9° 16' 36" W  View metadata report for BODC series reference number 918332
9183441995-06-15 11:36 38° 32' 53" N  9° 16' 0" W  View metadata report for BODC series reference number 918344
9183561995-06-15 12:02 38° 31' 5" N  9° 16' 36" W  View metadata report for BODC series reference number 918356
9183681995-06-15 13:50 38° 27' 42" N  9° 16' 23" W  View metadata report for BODC series reference number 918368
9183811995-06-15 14:15 38° 28' 11" N  9° 19' 5" W  View metadata report for BODC series reference number 918381
9183931995-06-15 15:00 38° 26' 6" N  9° 23' 41" W  View metadata report for BODC series reference number 918393
9184001995-06-15 15:35 38° 28' 59" N  9° 21' 54" W  View metadata report for BODC series reference number 918400
9184121995-06-15 16:08 38° 32' 42" N  9° 20' 23" W  View metadata report for BODC series reference number 918412
9184241995-06-15 16:40 38° 34' 5" N  9° 20' 6" W  View metadata report for BODC series reference number 918424
9184361995-06-16 12:19 38° 55' 54" N  9° 58' 29" W  View metadata report for BODC series reference number 918436
9184481995-06-16 13:11 38° 55' 47" N  9° 52' 11" W  View metadata report for BODC series reference number 918448
9184611995-06-16 14:46 38° 55' 59" N  9° 39' 53" W  View metadata report for BODC series reference number 918461
9184731995-06-16 15:35 38° 55' 54" N  9° 33' 36" W  View metadata report for BODC series reference number 918473
9184851995-06-16 16:18 38° 56' 12" N  9° 28' 41" W  View metadata report for BODC series reference number 918485
9184971995-06-20 12:24 38° 3' 53" N  8° 57' 53" W  View metadata report for BODC series reference number 918497
9185041995-06-20 13:02 38° 7' 5" N  8° 58' 5" W  View metadata report for BODC series reference number 918504
9185161995-06-20 13:37 38° 9' 53" N  8° 57' 56" W  View metadata report for BODC series reference number 918516
9185281995-06-20 14:19 38° 8' 53" N  9° 3' 0" W  View metadata report for BODC series reference number 918528
9185411995-06-20 15:42 38° 15' 18" N  8° 59' 17" W  View metadata report for BODC series reference number 918541
9185531995-06-21 10:41 38° 23' 42" N  8° 53' 53" W  View metadata report for BODC series reference number 918553
9185651995-06-21 11:34 38° 20' 6" N  8° 53' 35" W  View metadata report for BODC series reference number 918565
9185771995-06-21 12:15 38° 19' 0" N  8° 52' 18" W  View metadata report for BODC series reference number 918577
9185891995-06-21 12:29 38° 18' 47" N  8° 51' 42" W  View metadata report for BODC series reference number 918589
9185901995-06-21 13:06 38° 17' 17" N  8° 51' 47" W  View metadata report for BODC series reference number 918590
9186081995-06-21 13:25 38° 16' 29" N  8° 51' 35" W  View metadata report for BODC series reference number 918608
9186211995-06-21 13:51 38° 15' 42" N  8° 55' 0" W  View metadata report for BODC series reference number 918621
9186331995-06-21 15:24 38° 18' 42" N  8° 58' 54" W  View metadata report for BODC series reference number 918633
9186451995-06-21 16:21 38° 20' 30" N  8° 57' 11" W  View metadata report for BODC series reference number 918645
9186571995-06-21 16:39 38° 23' 5" N  8° 55' 30" W  View metadata report for BODC series reference number 918657
9186691995-06-21 17:08 38° 24' 6" N  8° 58' 18" W  View metadata report for BODC series reference number 918669
9186701995-06-13 12:44 38° 41' 6" N  9° 34' 36" W  View metadata report for BODC series reference number 918670
9186821995-06-13 15:03 38° 33' 47" N  9° 38' 48" W  View metadata report for BODC series reference number 918682
9186941995-06-14 11:20 38° 47' 53" N  9° 35' 48" W  View metadata report for BODC series reference number 918694
9187011995-06-14 13:45 38° 47' 53" N  9° 51' 18" W  View metadata report for BODC series reference number 918701
9187131995-06-15 11:20 38° 32' 58" N  9° 16' 47" W  View metadata report for BODC series reference number 918713
9187251995-06-15 13:10 38° 29' 24" N  9° 16' 36" W  View metadata report for BODC series reference number 918725
9187371995-06-20 15:01 38° 12' 54" N  9° 2' 53" W  View metadata report for BODC series reference number 918737
9187491995-06-21 11:15 38° 20' 53" N  8° 51' 35" W  View metadata report for BODC series reference number 918749
9187501995-06-21 12:49 38° 18' 6" N  8° 51' 54" W  View metadata report for BODC series reference number 918750
9187621995-06-21 14:47 38° 17' 25" N  9° 0' 24" W  View metadata report for BODC series reference number 918762
9187741995-06-21 15:53 38° 17' 42" N  8° 55' 11" W  View metadata report for BODC series reference number 918774
9187861995-06-21 17:26 38° 25' 23" N  8° 56' 48" W  View metadata report for BODC series reference number 918786
9187981995-06-12 13:02 38° 39' 47" N  9° 23' 17" W  View metadata report for BODC series reference number 918798
9188051995-06-12 17:52 38° 35' 24" N  9° 19' 12" W  View metadata report for BODC series reference number 918805
9188171995-06-13 16:18 38° 37' 18" N  9° 28' 36" W  View metadata report for BODC series reference number 918817
Discrete samples 
47  Deck pump sampling at depth (e.g. Flygt pump)Particulate total and organic carbon concentrations in the water column
Concentration of suspended particulate material in the water column